Search for airport 
image banner adimage banner adimage banner ad
image banner ad

Y46 - Bedford Muni

Located in Bedford, United States

ICAO - Y46, IATA -

Data provided by Airmate  

General information

Coordinates: N40°38'16" W94°43'46"
Elevation is 1201 feet MSL.
Magnetic variation is 05° East
View others Airports in Iowa

Operational data

Special qualification required
Current time UTC:
Current local time:
Weather at : KICL - Schenck Field ( 27 km )
METAR: KICL 181735Z AUTO 01011KT 10SM CLR 32/19 A2988 RMK AO2
View NOTAMs / SUP AIP / TFR affecting this airport [VIEW]
Communications frequencies: [VIEW]

Runways:

RWY identifierQFULength (ft)Width (ft)SurfaceLDA (ft)
182710100GRASS
362710100GRASS

Airport contact information

Address: Bedford United States

Satellite view of Y46